Time;durP1;ratioP1;P1;durP2;ratioP2;P2;SDS_P1;SDS_P2;PMS_P1;PMS_P2;Temp;Humidity;BMP_temperature;BMP_pressure;BME280_temperature;BME280_humidity;BME280_pressure;Samples;Min_cycle;Max_cycle;Signal;HPM_P1;HPM_P2
2023/10/26 00:00:41;;;;;;;0.90;0.90;;;;;;;;;;5023332;28;20531;-81
2023/10/26 00:03:10;;;;;;;1.20;1.05;;;;;;;;;;5060450;28;20429;-81
2023/10/26 00:05:41;;;;;;;0.80;0.80;;;;;;;;;;5055818;28;20443;-81
2023/10/26 00:08:08;;;;;;;1.13;1.13;;;;;;;;;;5028044;28;20509;-80
2023/10/26 00:10:38;;;;;;;1.00;1.00;;;;;;;;;;5037836;28;20932;-81
2023/10/26 00:13:06;;;;;;;1.40;0.93;;;;;;;;;;5051175;28;20438;-81
2023/10/26 00:15:35;;;;;;;0.70;0.70;;;;;;;;;;5025130;28;20443;-81
2023/10/26 00:18:02;;;;;;;0.60;0.60;;;;;;;;;;5028324;28;20445;-81
2023/10/26 00:20:31;;;;;;;0.70;0.70;;;;;;;;;;5051653;28;20427;-81
2023/10/26 00:23:04;;;;;;;1.40;0.60;;;;;;;;;;5052083;28;20785;-80
2023/10/26 00:25:34;;;;;;;1.05;0.82;;;;;;;;;;5022434;28;20433;-80
2023/10/26 00:28:03;;;;;;;1.40;0.80;;;;;;;;;;5022639;28;20445;-80
2023/10/26 00:30:30;;;;;;;0.60;0.60;;;;;;;;;;5053374;28;20466;-81
2023/10/26 00:32:58;;;;;;;0.68;0.68;;;;;;;;;;5024861;28;21097;-81
2023/10/26 00:35:25;;;;;;;1.05;0.75;;;;;;;;;;5059393;28;20466;-81
2023/10/26 00:37:52;;;;;;;1.60;0.80;;;;;;;;;;5020861;28;20434;-81
2023/10/26 00:40:20;;;;;;;0.77;0.77;;;;;;;;;;5020056;28;20472;-81
2023/10/26 00:42:47;;;;;;;0.70;0.70;;;;;;;;;;5011770;28;20456;-82
2023/10/26 00:45:14;;;;;;;0.80;0.80;;;;;;;;;;5041241;28;20492;-81
2023/10/26 00:47:42;;;;;;;0.70;0.70;;;;;;;;;;5018226;28;20450;-82
2023/10/26 00:50:09;;;;;;;0.50;0.50;;;;;;;;;;5048443;28;20841;-82
2023/10/26 00:52:37;;;;;;;1.30;0.80;;;;;;;;;;5044333;28;20437;-82
2023/10/26 00:55:07;;;;;;;0.80;0.77;;;;;;;;;;5055545;28;20492;-82
2023/10/26 00:57:35;;;;;;;0.60;0.60;;;;;;;;;;5057314;28;20439;-81
2023/10/26 01:00:09;;;;;;;0.80;0.80;;;;;;;;;;5049341;28;20435;-82
2023/10/26 01:02:40;;;;;;;1.58;1.08;;;;;;;;;;5048581;28;20451;-81
2023/10/26 01:05:07;;;;;;;0.60;0.60;;;;;;;;;;5054734;28;20436;-81
2023/10/26 01:07:34;;;;;;;0.80;0.80;;;;;;;;;;5048127;28;20525;-81
2023/10/26 01:10:01;;;;;;;0.85;0.85;;;;;;;;;;5021186;28;20446;-81
2023/10/26 01:12:29;;;;;;;1.60;0.90;;;;;;;;;;5023932;28;21046;-81
2023/10/26 01:14:56;;;;;;;0.80;0.80;;;;;;;;;;5018245;28;20536;-80
2023/10/26 01:17:24;;;;;;;0.95;0.80;;;;;;;;;;5021686;28;20933;-81
2023/10/26 01:19:51;;;;;;;0.70;0.70;;;;;;;;;;5023156;28;20727;-81
2023/10/26 01:22:21;;;;;;;0.80;0.80;;;;;;;;;;5055661;28;21027;-81
2023/10/26 01:24:48;;;;;;;0.90;0.90;;;;;;;;;;5054105;28;20441;-82
2023/10/26 01:27:15;;;;;;;1.60;0.90;;;;;;;;;;5048953;28;20469;-82
2023/10/26 01:29:42;;;;;;;0.90;0.90;;;;;;;;;;5014321;28;20530;-82
2023/10/26 01:32:10;;;;;;;1.80;0.90;;;;;;;;;;5018513;28;20938;-82
2023/10/26 01:34:43;;;;;;;1.52;0.90;;;;;;;;;;5023302;28;20442;-80
2023/10/26 01:37:10;;;;;;;2.50;0.90;;;;;;;;;;5059146;28;20435;-81
2023/10/26 01:39:38;;;;;;;1.03;0.93;;;;;;;;;;5019904;28;20438;-81
2023/10/26 01:42:09;;;;;;;1.00;1.00;;;;;;;;;;5017089;28;20433;-81
2023/10/26 01:44:38;;;;;;;1.20;1.20;;;;;;;;;;5019527;28;20637;-81
2023/10/26 01:47:10;;;;;;;1.10;1.00;;;;;;;;;;5018389;28;20952;-82
2023/10/26 01:49:37;;;;;;;1.20;1.10;;;;;;;;;;5049961;28;20438;-82
2023/10/26 01:52:04;;;;;;;1.27;1.27;;;;;;;;;;5018643;28;20506;-80
2023/10/26 01:54:34;;;;;;;1.17;1.08;;;;;;;;;;5044639;28;20693;-81
2023/10/26 01:57:04;;;;;;;1.20;1.20;;;;;;;;;;5010146;28;20432;-81
2023/10/26 01:59:32;;;;;;;1.27;1.27;;;;;;;;;;5017042;28;20439;-82
2023/10/26 02:01:59;;;;;;;1.10;1.10;;;;;;;;;;5045721;28;20427;-81
2023/10/26 02:04:26;;;;;;;1.20;1.20;;;;;;;;;;5020984;28;20431;-81
2023/10/26 02:06:53;;;;;;;1.30;1.30;;;;;;;;;;5056286;28;20478;-82
2023/10/26 02:09:21;;;;;;;1.30;1.30;;;;;;;;;;5053530;28;20441;-81
2023/10/26 02:11:48;;;;;;;1.40;1.40;;;;;;;;;;5011185;28;20433;-81
2023/10/26 02:14:16;;;;;;;1.30;1.30;;;;;;;;;;5019365;28;20446;-81
2023/10/26 02:16:43;;;;;;;1.45;1.40;;;;;;;;;;5009942;28;20491;-81
2023/10/26 02:19:10;;;;;;;1.43;1.33;;;;;;;;;;5019561;28;20515;-81
2023/10/26 02:21:37;;;;;;;1.77;1.48;;;;;;;;;;5052331;28;20509;-82
2023/10/26 02:24:04;;;;;;;1.38;1.38;;;;;;;;;;5051862;28;20435;-81
2023/10/26 02:26:32;;;;;;;1.60;1.60;;;;;;;;;;5016656;28;20522;-81
2023/10/26 02:28:59;;;;;;;1.67;1.60;;;;;;;;;;5047856;28;20508;-82
2023/10/26 02:31:26;;;;;;;1.50;1.50;;;;;;;;;;5047074;28;20457;-82
2023/10/26 02:33:53;;;;;;;1.40;1.30;;;;;;;;;;5014984;28;20466;-81
2023/10/26 02:36:21;;;;;;;1.40;1.40;;;;;;;;;;5046673;28;20437;-81
2023/10/26 02:38:49;;;;;;;1.17;1.17;;;;;;;;;;5046070;28;20439;-81
2023/10/26 02:41:19;;;;;;;1.33;1.33;;;;;;;;;;5020946;28;20439;-81
2023/10/26 02:43:46;;;;;;;1.40;1.40;;;;;;;;;;5052465;28;20430;-81
2023/10/26 02:46:13;;;;;;;1.33;1.25;;;;;;;;;;5046323;28;20476;-82
2023/10/26 02:48:43;;;;;;;1.40;1.40;;;;;;;;;;5045911;28;20435;-81
2023/10/26 02:51:10;;;;;;;1.58;1.52;;;;;;;;;;5051491;28;20945;-81
2023/10/26 02:53:38;;;;;;;1.43;1.43;;;;;;;;;;5053030;28;20430;-81
2023/10/26 02:56:05;;;;;;;1.48;1.35;;;;;;;;;;5021236;28;20434;-81
2023/10/26 02:58:36;;;;;;;1.38;1.38;;;;;;;;;;5047328;28;20514;-81
2023/10/26 03:01:03;;;;;;;1.52;1.40;;;;;;;;;;5055210;28;20527;-81
2023/10/26 03:03:30;;;;;;;1.70;1.60;;;;;;;;;;5047884;28;20531;-80
2023/10/26 03:06:01;;;;;;;1.55;1.52;;;;;;;;;;5014580;28;20453;-80
2023/10/26 03:08:28;;;;;;;2.25;1.55;;;;;;;;;;5022406;28;20573;-81
2023/10/26 03:10:55;;;;;;;1.95;1.85;;;;;;;;;;5049961;28;20509;-81
2023/10/26 03:13:22;;;;;;;1.80;1.70;;;;;;;;;;5016276;28;20518;-82
2023/10/26 03:15:50;;;;;;;1.50;1.50;;;;;;;;;;5050680;28;20594;-81
2023/10/26 03:18:17;;;;;;;1.75;1.70;;;;;;;;;;5012291;28;20830;-82
2023/10/26 03:20:48;;;;;;;1.70;1.70;;;;;;;;;;5023675;28;20457;-81
2023/10/26 03:23:15;;;;;;;1.70;1.60;;;;;;;;;;5055087;28;20435;-82
2023/10/26 03:25:42;;;;;;;1.70;1.60;;;;;;;;;;5016373;28;20514;-80
2023/10/26 03:28:12;;;;;;;1.70;1.60;;;;;;;;;;5045835;28;20436;-82
2023/10/26 03:30:39;;;;;;;1.60;1.60;;;;;;;;;;5014905;28;20721;-80
2023/10/26 03:33:06;;;;;;;1.80;1.70;;;;;;;;;;5052931;28;20438;-81
2023/10/26 03:35:35;;;;;;;2.03;1.92;;;;;;;;;;5051162;28;21006;-82
2023/10/26 03:38:02;;;;;;;1.80;1.70;;;;;;;;;;5021282;28;20438;-81
2023/10/26 03:40:29;;;;;;;1.50;1.50;;;;;;;;;;5052093;28;20441;-82
2023/10/26 03:42:56;;;;;;;1.70;1.60;;;;;;;;;;5047535;28;20527;-82
2023/10/26 03:45:28;;;;;;;1.80;1.70;;;;;;;;;;5052530;28;20438;-81
2023/10/26 03:47:56;;;;;;;2.35;1.80;;;;;;;;;;5025109;28;20439;-81
2023/10/26 03:50:23;;;;;;;2.00;1.90;;;;;;;;;;5024105;28;20483;-82
2023/10/26 03:52:50;;;;;;;2.33;2.22;;;;;;;;;;5016199;28;20434;-81
2023/10/26 03:55:17;;;;;;;3.00;2.80;;;;;;;;;;5055069;28;20531;-81
2023/10/26 03:57:48;;;;;;;3.10;2.90;;;;;;;;;;5028567;28;20433;-82
2023/10/26 04:00:16;;;;;;;3.00;2.80;;;;;;;;;;5051456;28;20974;-81
2023/10/26 04:02:44;;;;;;;2.20;2.10;;;;;;;;;;5047573;28;20476;-81
2023/10/26 04:05:15;;;;;;;2.30;2.20;;;;;;;;;;5017911;28;20460;-82
2023/10/26 04:07:43;;;;;;;2.38;2.28;;;;;;;;;;5026258;28;20788;-82
2023/10/26 04:10:10;;;;;;;2.40;2.30;;;;;;;;;;5047266;28;20532;-82
2023/10/26 04:12:37;;;;;;;2.70;2.50;;;;;;;;;;5019622;28;20432;-82
2023/10/26 04:15:08;;;;;;;3.67;2.27;;;;;;;;;;5047124;28;20433;-82
2023/10/26 04:17:35;;;;;;;2.35;1.88;;;;;;;;;;5026710;28;20429;-82
2023/10/26 04:20:07;;;;;;;3.03;2.60;;;;;;;;;;5025612;28;20482;-82
2023/10/26 04:22:34;;;;;;;2.17;2.08;;;;;;;;;;5011472;28;20491;-81
2023/10/26 04:25:02;;;;;;;2.40;2.20;;;;;;;;;;5047903;28;21021;-82
2023/10/26 04:27:29;;;;;;;1.77;1.60;;;;;;;;;;5033286;28;20452;-81
2023/10/26 04:29:56;;;;;;;1.80;1.70;;;;;;;;;;5060409;28;20436;-82
2023/10/26 04:32:23;;;;;;;2.10;1.90;;;;;;;;;;5056209;28;20434;-81
2023/10/26 04:34:50;;;;;;;1.70;1.60;;;;;;;;;;5017233;28;20501;-81
2023/10/26 04:37:18;;;;;;;3.40;1.70;;;;;;;;;;5031104;28;20439;-82
2023/10/26 04:39:45;;;;;;;1.73;1.70;;;;;;;;;;5057751;28;20504;-82
2023/10/26 04:42:12;;;;;;;1.70;1.60;;;;;;;;;;5052749;28;20884;-82
2023/10/26 04:44:40;;;;;;;2.50;1.57;;;;;;;;;;5029464;28;20959;-82
2023/10/26 04:47:08;;;;;;;3.15;1.60;;;;;;;;;;5052384;28;20436;-82
2023/10/26 04:49:41;;;;;;;1.90;1.60;;;;;;;;;;5019459;28;20423;-82
2023/10/26 04:52:09;;;;;;;1.33;1.30;;;;;;;;;;5049690;28;20661;-82
2023/10/26 04:54:38;;;;;;;1.40;1.23;;;;;;;;;;5037297;28;20431;-82
2023/10/26 04:57:05;;;;;;;1.33;1.33;;;;;;;;;;5060787;28;20848;-81
2023/10/26 04:59:32;;;;;;;1.30;1.20;;;;;;;;;;5025407;28;20516;-81
2023/10/26 05:01:59;;;;;;;1.30;1.20;;;;;;;;;;5053906;28;20430;-82
2023/10/26 05:04:27;;;;;;;1.45;1.38;;;;;;;;;;5014473;28;20805;-82
2023/10/26 05:06:54;;;;;;;1.80;1.13;;;;;;;;;;5054449;28;20438;-82
2023/10/26 05:09:21;;;;;;;2.15;1.15;;;;;;;;;;5012715;28;20478;-82
2023/10/26 05:11:48;;;;;;;0.80;0.80;;;;;;;;;;5025250;28;20430;-82
2023/10/26 05:14:15;;;;;;;0.90;0.90;;;;;;;;;;5020511;28;20436;-82
2023/10/26 05:16:43;;;;;;;1.20;1.20;;;;;;;;;;5027630;28;20531;-82
2023/10/26 05:19:10;;;;;;;1.20;1.10;;;;;;;;;;5022832;28;20803;-82
2023/10/26 05:21:37;;;;;;;0.90;0.90;;;;;;;;;;5027514;28;20985;-82
2023/10/26 05:24:05;;;;;;;1.20;1.20;;;;;;;;;;5021505;28;20489;-82
2023/10/26 05:26:32;;;;;;;2.53;1.10;;;;;;;;;;5052501;28;20526;-82
2023/10/26 05:29:08;;;;;;;4.85;1.10;;;;;;;;;;5046657;28;20452;-82
2023/10/26 05:31:35;;;;;;;1.10;1.00;;;;;;;;;;5042668;28;21508;-82
2023/10/26 05:34:02;;;;;;;1.10;1.00;;;;;;;;;;5036635;28;20552;-81
2023/10/26 05:36:29;;;;;;;0.90;0.90;;;;;;;;;;5041440;28;20498;-81
2023/10/26 05:38:57;;;;;;;1.45;1.35;;;;;;;;;;5020153;28;20441;-81
2023/10/26 05:41:24;;;;;;;1.00;1.00;;;;;;;;;;5024037;28;20437;-80
2023/10/26 05:43:51;;;;;;;1.10;1.10;;;;;;;;;;5030175;28;20516;-81
2023/10/26 05:46:18;;;;;;;1.20;1.20;;;;;;;;;;5057868;28;20483;-81
2023/10/26 05:48:45;;;;;;;1.08;0.95;;;;;;;;;;5033417;28;20466;-82
2023/10/26 05:51:15;;;;;;;2.00;1.08;;;;;;;;;;5014311;28;20467;-81
2023/10/26 05:53:42;;;;;;;1.70;1.00;;;;;;;;;;5013141;28;20522;-81
2023/10/26 05:56:11;;;;;;;0.95;0.95;;;;;;;;;;5046275;28;20436;-81
2023/10/26 05:58:38;;;;;;;0.80;0.80;;;;;;;;;;5024709;28;20510;-81
2023/10/26 06:01:05;;;;;;;1.70;0.90;;;;;;;;;;5017303;28;20828;-82
2023/10/26 06:03:33;;;;;;;1.90;1.10;;;;;;;;;;5019342;28;20458;-81
2023/10/26 06:06:00;;;;;;;1.08;0.98;;;;;;;;;;5044607;28;20446;-81
2023/10/26 06:08:28;;;;;;;0.83;0.83;;;;;;;;;;5015498;28;20440;-81
2023/10/26 06:10:57;;;;;;;0.90;0.90;;;;;;;;;;5015423;28;20444;-81
2023/10/26 06:13:24;;;;;;;3.97;1.30;;;;;;;;;;5053146;28;20531;-81
2023/10/26 06:15:52;;;;;;;0.98;0.98;;;;;;;;;;5021004;28;20934;-81
2023/10/26 06:18:19;;;;;;;0.90;0.90;;;;;;;;;;5050649;28;20476;-82
2023/10/26 06:20:59;;;;;;;1.10;1.00;;;;;;;;;;5042566;28;20442;-81
2023/10/26 06:23:29;;;;;;;1.00;1.00;;;;;;;;;;5016823;28;20458;-82
2023/10/26 06:25:58;;;;;;;0.90;0.90;;;;;;;;;;5042544;28;20440;-82
2023/10/26 06:28:25;;;;;;;0.70;0.70;;;;;;;;;;5013043;28;20472;-82
2023/10/26 06:30:53;;;;;;;1.23;1.10;;;;;;;;;;5057273;28;20445;-81
2023/10/26 06:33:20;;;;;;;1.88;0.90;;;;;;;;;;5014934;28;20725;-82
2023/10/26 06:35:48;;;;;;;1.42;1.02;;;;;;;;;;5048280;28;20463;-83
2023/10/26 06:38:15;;;;;;;1.05;1.00;;;;;;;;;;5050179;28;20443;-82
2023/10/26 06:40:44;;;;;;;1.08;1.05;;;;;;;;;;5045276;28;20444;-82
2023/10/26 06:43:11;;;;;;;1.10;1.00;;;;;;;;;;5012122;28;20892;-81
2023/10/26 06:45:38;;;;;;;1.00;0.90;;;;;;;;;;5047595;28;20957;-81
2023/10/26 06:48:06;;;;;;;0.90;0.90;;;;;;;;;;5051293;28;20438;-81
2023/10/26 06:50:33;;;;;;;1.42;1.33;;;;;;;;;;5042728;28;20844;-81
2023/10/26 06:53:00;;;;;;;1.10;1.00;;;;;;;;;;5005325;28;20527;-81
2023/10/26 06:55:31;;;;;;;1.02;0.90;;;;;;;;;;5045806;28;20432;-81
2023/10/26 06:57:58;;;;;;;1.08;1.08;;;;;;;;;;5016152;28;20431;-80
2023/10/26 07:00:26;;;;;;;0.88;0.88;;;;;;;;;;5036615;28;20524;-81
2023/10/26 07:02:53;;;;;;;1.90;0.90;;;;;;;;;;5017525;28;20907;-81
2023/10/26 07:05:20;;;;;;;1.20;1.10;;;;;;;;;;5044842;28;20460;-81
2023/10/26 07:07:47;;;;;;;0.77;0.77;;;;;;;;;;5012984;28;20700;-81
2023/10/26 07:10:15;;;;;;;1.15;1.15;;;;;;;;;;5017523;28;20463;-81
2023/10/26 07:12:43;;;;;;;1.05;0.95;;;;;;;;;;5015419;28;20431;-81
2023/10/26 07:15:10;;;;;;;0.90;0.90;;;;;;;;;;5023274;28;20526;-82
2023/10/26 07:17:38;;;;;;;0.93;0.93;;;;;;;;;;5020992;28;20823;-82
2023/10/26 07:20:07;;;;;;;0.70;0.70;;;;;;;;;;5056252;28;20763;-81
2023/10/26 07:22:35;;;;;;;1.25;0.75;;;;;;;;;;5058408;28;20495;-82
2023/10/26 07:25:03;;;;;;;0.80;0.80;;;;;;;;;;5050856;28;20481;-82
2023/10/26 07:27:30;;;;;;;1.20;0.80;;;;;;;;;;5064549;28;20441;-82
2023/10/26 07:29:57;;;;;;;0.70;0.70;;;;;;;;;;5028141;28;20433;-82
2023/10/26 07:32:24;;;;;;;0.80;0.60;;;;;;;;;;5048565;28;20516;-82
2023/10/26 07:34:52;;;;;;;0.70;0.70;;;;;;;;;;5028223;28;20435;-83
2023/10/26 07:37:19;;;;;;;0.60;0.60;;;;;;;;;;5020452;28;20447;-82
2023/10/26 07:39:46;;;;;;;0.75;0.60;;;;;;;;;;5048019;28;20850;-82
2023/10/26 07:42:15;;;;;;;0.50;0.50;;;;;;;;;;5050772;28;20510;-81
2023/10/26 07:44:44;;;;;;;2.00;0.90;;;;;;;;;;5027098;28;20429;-82
2023/10/26 07:47:13;;;;;;;0.60;0.60;;;;;;;;;;5014841;28;22338;-81
2023/10/26 07:49:40;;;;;;;0.70;0.70;;;;;;;;;;5057752;28;20526;-81
2023/10/26 07:52:07;;;;;;;0.70;0.70;;;;;;;;;;5046871;28;20796;-82
2023/10/26 07:54:38;;;;;;;1.52;0.70;;;;;;;;;;5014456;28;20427;-81
2023/10/26 07:57:05;;;;;;;0.63;0.63;;;;;;;;;;5051955;28;20526;-82
2023/10/26 07:59:44;;;;;;;0.60;0.60;;;;;;;;;;5049886;28;20436;-82
2023/10/26 08:02:13;;;;;;;1.05;0.70;;;;;;;;;;5043373;28;20941;-81
2023/10/26 08:04:41;;;;;;;0.68;0.68;;;;;;;;;;5049812;28;20499;-82
2023/10/26 08:07:11;;;;;;;0.70;0.70;;;;;;;;;;5017750;28;20447;-82
2023/10/26 08:09:44;;;;;;;0.70;0.70;;;;;;;;;;5012796;28;20461;-82
2023/10/26 08:12:12;;;;;;;0.70;0.70;;;;;;;;;;5029420;28;20442;-82
2023/10/26 08:14:40;;;;;;;0.80;0.80;;;;;;;;;;5025054;28;20936;-81
2023/10/26 08:17:27;;;;;;;1.00;0.70;;;;;;;;;;5013012;28;20421;-82
2023/10/26 08:19:54;;;;;;;1.30;0.60;;;;;;;;;;5013755;28;20443;-82
2023/10/26 08:22:22;;;;;;;0.70;0.70;;;;;;;;;;5050811;28;20431;-82
2023/10/26 08:24:49;;;;;;;0.70;0.70;;;;;;;;;;5015920;28;20453;-83
2023/10/26 08:27:19;;;;;;;0.70;0.70;;;;;;;;;;5052035;28;20461;-83
2023/10/26 08:29:46;;;;;;;0.70;0.70;;;;;;;;;;5059931;28;20510;-83
2023/10/26 08:32:13;;;;;;;0.70;0.70;;;;;;;;;;5058449;28;20446;-82
2023/10/26 08:34:40;;;;;;;0.95;0.70;;;;;;;;;;5050728;28;20447;-83
2023/10/26 08:37:07;;;;;;;1.00;0.70;;;;;;;;;;5020774;28;20510;-82
2023/10/26 08:39:40;;;;;;;0.70;0.70;;;;;;;;;;5047641;28;20434;-81
2023/10/26 08:42:08;;;;;;;0.80;0.80;;;;;;;;;;5023834;28;20434;-81
2023/10/26 08:44:42;;;;;;;0.70;0.70;;;;;;;;;;5016926;28;20466;-81
2023/10/26 08:47:14;;;;;;;0.60;0.60;;;;;;;;;;5048744;28;20469;-82
2023/10/26 08:49:44;;;;;;;0.50;0.50;;;;;;;;;;5018300;28;20528;-81
2023/10/26 08:52:22;;;;;;;0.73;0.60;;;;;;;;;;5022237;28;21003;-81
2023/10/26 08:54:50;;;;;;;1.00;1.00;;;;;;;;;;5008874;28;21168;-81
2023/10/26 08:57:18;;;;;;;3.23;0.70;;;;;;;;;;5047950;28;20449;-82
2023/10/26 08:59:45;;;;;;;1.40;0.50;;;;;;;;;;5022462;28;20437;-82
2023/10/26 09:02:12;;;;;;;0.80;0.70;;;;;;;;;;5050114;28;20990;-80
2023/10/26 09:05:02;;;;;;;0.80;0.73;;;;;;;;;;5053507;28;20664;-80
2023/10/26 09:07:30;;;;;;;2.30;0.70;;;;;;;;;;5014147;28;21065;-81
2023/10/26 09:09:58;;;;;;;0.80;0.60;;;;;;;;;;5010588;28;20471;-81
2023/10/26 09:12:25;;;;;;;0.75;0.70;;;;;;;;;;5048870;28;20430;-81
2023/10/26 09:15:06;;;;;;;1.00;0.70;;;;;;;;;;5024189;28;20821;-81
2023/10/26 09:17:37;;;;;;;0.70;0.70;;;;;;;;;;5044595;28;20436;-81
2023/10/26 09:20:21;;;;;;;1.80;0.80;;;;;;;;;;5048980;28;20424;-82
2023/10/26 09:22:51;;;;;;;0.70;0.70;;;;;;;;;;5052801;28;20430;-82
2023/10/26 09:25:19;;;;;;;0.80;0.70;;;;;;;;;;5010261;28;20448;-81
2023/10/26 09:27:49;;;;;;;2.28;0.77;;;;;;;;;;5017099;28;20438;-82
2023/10/26 09:30:22;;;;;;;1.55;0.70;;;;;;;;;;5054352;28;20430;-80
2023/10/26 09:32:50;;;;;;;1.20;0.70;;;;;;;;;;5052259;28;20853;-81
2023/10/26 09:35:34;;;;;;;1.40;0.70;;;;;;;;;;5023127;28;20490;-81
2023/10/26 09:38:04;;;;;;;2.42;0.90;;;;;;;;;;5021968;28;20504;-82
2023/10/26 09:40:31;;;;;;;1.00;0.60;;;;;;;;;;5057955;28;20436;-81
2023/10/26 09:42:58;;;;;;;0.60;0.60;;;;;;;;;;5019733;28;20997;-82
2023/10/26 09:45:26;;;;;;;1.00;0.77;;;;;;;;;;5041639;28;20440;-81
2023/10/26 09:47:53;;;;;;;1.10;0.70;;;;;;;;;;5019856;28;20443;-82
2023/10/26 09:50:22;;;;;;;0.60;0.60;;;;;;;;;;5021643;28;20433;-82
2023/10/26 09:52:50;;;;;;;1.10;0.77;;;;;;;;;;5022724;28;20447;-81
2023/10/26 09:55:18;;;;;;;1.10;0.70;;;;;;;;;;5054297;28;20435;-81
2023/10/26 09:57:56;;;;;;;3.40;0.90;;;;;;;;;;5020841;28;20439;-81
2023/10/26 10:00:33;;;;;;;0.80;0.80;;;;;;;;;;5021376;28;20427;-81
2023/10/26 10:03:16;;;;;;;3.42;1.00;;;;;;;;;;5045423;28;20445;-81
2023/10/26 10:05:45;;;;;;;1.35;0.70;;;;;;;;;;5043232;28;20437;-82
2023/10/26 10:08:35;;;;;;;0.80;0.60;;;;;;;;;;5056317;28;20782;-82
2023/10/26 10:11:17;;;;;;;0.80;0.60;;;;;;;;;;5043616;28;20524;-81
2023/10/26 10:13:48;;;;;;;0.60;0.50;;;;;;;;;;5054348;28;20435;-82
2023/10/26 10:16:34;;;;;;;0.90;0.90;;;;;;;;;;5050341;28;20434;-82
2023/10/26 10:19:16;;;;;;;0.47;0.47;;;;;;;;;;5047090;28;20434;-82
2023/10/26 10:21:48;;;;;;;0.90;0.60;;;;;;;;;;5055876;28;20462;-82
2023/10/26 10:24:34;;;;;;;1.08;0.65;;;;;;;;;;5052360;28;20711;-82
2023/10/26 10:27:11;;;;;;;0.70;0.60;;;;;;;;;;5053083;28;20443;-82
2023/10/26 10:29:41;;;;;;;0.73;0.50;;;;;;;;;;5018019;28;20514;-82
2023/10/26 10:32:11;;;;;;;1.70;0.63;;;;;;;;;;5056641;28;20435;-82
2023/10/26 10:34:43;;;;;;;0.88;0.50;;;;;;;;;;5059046;28;20466;-82
2023/10/26 10:37:11;;;;;;;1.38;0.50;;;;;;;;;;5061147;28;20434;-82
2023/10/26 10:39:39;;;;;;;2.45;0.70;;;;;;;;;;5016298;28;20942;-82
2023/10/26 10:42:10;;;;;;;0.70;0.60;;;;;;;;;;5022963;28;20945;-82
2023/10/26 10:44:38;;;;;;;0.60;0.60;;;;;;;;;;5020191;28;20793;-82
2023/10/26 10:47:07;;;;;;;1.23;0.65;;;;;;;;;;5050249;28;20438;-80
2023/10/26 10:49:34;;;;;;;0.77;0.60;;;;;;;;;;5027741;28;20437;-80
2023/10/26 10:52:15;;;;;;;1.05;0.80;;;;;;;;;;5031996;28;20468;-80
2023/10/26 10:54:49;;;;;;;1.75;0.60;;;;;;;;;;5049039;28;20448;-80
2023/10/26 10:57:30;;;;;;;2.10;0.70;;;;;;;;;;5046700;28;20446;-82
2023/10/26 10:59:58;;;;;;;0.90;0.70;;;;;;;;;;5057457;28;20434;-81
2023/10/26 11:02:25;;;;;;;1.15;0.50;;;;;;;;;;5047590;28;20499;-81
2023/10/26 11:04:53;;;;;;;0.50;0.50;;;;;;;;;;5044470;28;20479;-81
2023/10/26 11:07:35;;;;;;;0.85;0.70;;;;;;;;;;5015720;28;20434;-82
2023/10/26 11:10:03;;;;;;;0.60;0.60;;;;;;;;;;5024241;28;20449;-81
2023/10/26 11:12:31;;;;;;;1.60;0.80;;;;;;;;;;5045765;28;20531;-81
2023/10/26 11:14:58;;;;;;;2.00;1.00;;;;;;;;;;5030091;28;20879;-81
2023/10/26 11:17:26;;;;;;;1.33;1.30;;;;;;;;;;5020462;28;20439;-82
2023/10/26 11:19:53;;;;;;;2.15;1.90;;;;;;;;;;5065781;28;20437;-81
2023/10/26 11:22:21;;;;;;;1.80;1.70;;;;;;;;;;5049669;28;20488;-81
2023/10/26 11:24:49;;;;;;;2.20;2.10;;;;;;;;;;5052365;28;20452;-82
2023/10/26 11:27:20;;;;;;;2.10;1.90;;;;;;;;;;5036984;23;20489;-76
2023/10/26 11:30:02;;;;;;;1.77;1.67;;;;;;;;;;5044493;28;20437;-78
2023/10/26 11:32:29;;;;;;;2.63;2.10;;;;;;;;;;5051648;28;20508;-78
2023/10/26 11:35:06;;;;;;;2.30;2.10;;;;;;;;;;5043208;28;20437;-77
2023/10/26 11:37:37;;;;;;;3.45;2.13;;;;;;;;;;5041268;28;20792;-79
2023/10/26 11:40:05;;;;;;;3.23;2.23;;;;;;;;;;5049300;28;21513;-78
2023/10/26 11:43:02;;;;;;;1.88;1.77;;;;;;;;;;5059645;28;20865;-78
2023/10/26 11:45:30;;;;;;;1.80;1.70;;;;;;;;;;5028608;28;20481;-77
2023/10/26 11:47:58;;;;;;;2.17;1.98;;;;;;;;;;5041260;28;20922;-76
2023/10/26 11:50:34;;;;;;;3.60;1.80;;;;;;;;;;5046042;28;20443;-75
2023/10/26 11:53:02;;;;;;;2.28;2.00;;;;;;;;;;5045807;28;20437;-75
2023/10/26 11:55:31;;;;;;;2.13;1.88;;;;;;;;;;5042420;28;20566;-74
2023/10/26 11:57:59;;;;;;;2.50;2.30;;;;;;;;;;5047064;28;20440;-72
2023/10/26 12:00:27;;;;;;;6.35;2.45;;;;;;;;;;5036759;28;20537;-71
2023/10/26 12:02:55;;;;;;;3.08;2.67;;;;;;;;;;5043035;28;20435;-71
2023/10/26 12:05:23;;;;;;;5.70;2.95;;;;;;;;;;5042872;28;20429;-73
2023/10/26 12:07:51;;;;;;;3.70;3.40;;;;;;;;;;5043753;28;20437;-73
2023/10/26 12:10:28;;;;;;;4.35;3.50;;;;;;;;;;5044863;28;20432;-73
2023/10/26 12:12:58;;;;;;;3.70;3.40;;;;;;;;;;5044109;28;20515;-73
2023/10/26 12:15:25;;;;;;;3.97;3.63;;;;;;;;;;5034533;28;20432;-73
2023/10/26 12:17:55;;;;;;;3.92;3.50;;;;;;;;;;5039786;28;20437;-73
2023/10/26 12:20:25;;;;;;;4.50;3.47;;;;;;;;;;5033413;28;20496;-73
2023/10/26 12:22:53;;;;;;;4.97;4.05;;;;;;;;;;5042198;28;20805;-73
2023/10/26 12:25:22;;;;;;;4.30;3.47;;;;;;;;;;5038124;28;20425;-75
2023/10/26 12:27:50;;;;;;;4.47;3.60;;;;;;;;;;5042598;28;20465;-74
2023/10/26 12:30:40;;;;;;;3.30;3.03;;;;;;;;;;5042740;28;20425;-74
2023/10/26 12:33:07;;;;;;;3.97;3.15;;;;;;;;;;5034888;28;20451;-73
2023/10/26 12:35:37;;;;;;;3.08;2.78;;;;;;;;;;5044843;28;20519;-73
2023/10/26 12:38:04;;;;;;;4.93;2.97;;;;;;;;;;5045342;28;20465;-74
2023/10/26 12:40:31;;;;;;;3.58;2.92;;;;;;;;;;5041242;28;20487;-74
2023/10/26 12:42:59;;;;;;;3.40;3.10;;;;;;;;;;5038508;28;20430;-74
2023/10/26 12:45:29;;;;;;;4.97;4.13;;;;;;;;;;5052967;28;20554;-74
2023/10/26 12:47:56;;;;;;;4.03;3.55;;;;;;;;;;5045974;28;20456;-74
2023/10/26 12:50:23;;;;;;;4.00;3.70;;;;;;;;;;5051169;28;20435;-74
2023/10/26 12:52:51;;;;;;;5.20;3.42;;;;;;;;;;5045591;28;20434;-74
2023/10/26 12:55:23;;;;;;;6.05;3.90;;;;;;;;;;5052620;28;20556;-76
2023/10/26 12:57:52;;;;;;;4.53;4.13;;;;;;;;;;5045374;28;21199;-75
2023/10/26 13:00:20;;;;;;;4.75;4.28;;;;;;;;;;5047918;28;20437;-75
2023/10/26 13:02:48;;;;;;;4.70;4.30;;;;;;;;;;5053240;28;21021;-75
2023/10/26 13:05:15;;;;;;;5.00;4.50;;;;;;;;;;5050782;28;20526;-75
2023/10/26 13:07:42;;;;;;;5.40;4.60;;;;;;;;;;5055333;28;20448;-75
2023/10/26 13:10:09;;;;;;;4.55;4.22;;;;;;;;;;5054415;28;20582;-75
2023/10/26 13:12:38;;;;;;;4.85;4.35;;;;;;;;;;5051749;28;20483;-75
2023/10/26 13:15:06;;;;;;;6.13;4.40;;;;;;;;;;5049745;28;20432;-76
2023/10/26 13:17:33;;;;;;;4.50;4.13;;;;;;;;;;5052089;28;20530;-76
2023/10/26 13:20:01;;;;;;;5.10;4.32;;;;;;;;;;5053825;28;20964;-74
2023/10/26 13:22:28;;;;;;;5.00;4.60;;;;;;;;;;5050268;28;20429;-75
2023/10/26 13:24:58;;;;;;;5.88;4.32;;;;;;;;;;5059234;28;20439;-75
2023/10/26 13:27:25;;;;;;;4.90;4.50;;;;;;;;;;5051590;28;20425;-74
2023/10/26 13:29:52;;;;;;;4.87;4.37;;;;;;;;;;5063463;28;20431;-74
2023/10/26 13:32:19;;;;;;;5.60;4.60;;;;;;;;;;5042565;28;20520;-74
2023/10/26 13:34:47;;;;;;;4.37;4.00;;;;;;;;;;5045067;28;20441;-74
2023/10/26 13:37:14;;;;;;;4.20;3.80;;;;;;;;;;5044020;28;20473;-74
2023/10/26 13:39:41;;;;;;;5.15;4.40;;;;;;;;;;5041387;28;20514;-74
2023/10/26 13:42:12;;;;;;;5.82;4.40;;;;;;;;;;5060747;28;20423;-74
2023/10/26 13:44:39;;;;;;;5.38;4.70;;;;;;;;;;5049845;28;20899;-75
2023/10/26 13:47:06;;;;;;;6.18;4.95;;;;;;;;;;5051147;28;20435;-75
2023/10/26 13:49:33;;;;;;;5.32;4.82;;;;;;;;;;5048759;28;20429;-75
2023/10/26 13:52:00;;;;;;;5.80;5.30;;;;;;;;;;5056194;28;20431;-74
2023/10/26 13:54:27;;;;;;;6.95;5.82;;;;;;;;;;5053761;28;20433;-74
2023/10/26 13:56:54;;;;;;;7.47;6.72;;;;;;;;;;5048653;28;20448;-74
2023/10/26 13:59:22;;;;;;;6.82;6.22;;;;;;;;;;5048890;28;20916;-74
2023/10/26 14:01:49;;;;;;;6.18;5.63;;;;;;;;;;5046545;28;20794;-74
2023/10/26 14:04:16;;;;;;;6.60;6.00;;;;;;;;;;5052509;28;20508;-74
2023/10/26 14:06:43;;;;;;;6.00;5.40;;;;;;;;;;5044873;28;20433;-74
2023/10/26 14:09:15;;;;;;;5.10;4.47;;;;;;;;;;5044371;28;20440;-74
2023/10/26 14:11:42;;;;;;;4.40;3.97;;;;;;;;;;5047271;28;20468;-74
2023/10/26 14:14:09;;;;;;;4.13;3.60;;;;;;;;;;5053348;28;20431;-74
2023/10/26 14:16:36;;;;;;;3.80;3.55;;;;;;;;;;5042848;28;20491;-73
2023/10/26 14:19:06;;;;;;;4.40;3.60;;;;;;;;;;5035502;28;20530;-73
2023/10/26 14:21:37;;;;;;;3.60;3.30;;;;;;;;;;5039191;28;20512;-73
2023/10/26 14:24:06;;;;;;;4.43;3.50;;;;;;;;;;5044678;28;20969;-73
2023/10/26 14:26:33;;;;;;;4.32;3.90;;;;;;;;;;5038551;28;20437;-74
2023/10/26 14:29:00;;;;;;;5.25;3.88;;;;;;;;;;5047384;28;20433;-74
2023/10/26 14:31:29;;;;;;;5.00;3.90;;;;;;;;;;5036227;28;20893;-73
2023/10/26 14:33:57;;;;;;;8.50;7.63;;;;;;;;;;5043987;28;21128;-73
2023/10/26 14:36:24;;;;;;;6.80;6.15;;;;;;;;;;5041488;28;20524;-73
2023/10/26 14:38:51;;;;;;;8.02;5.68;;;;;;;;;;5041232;28;20429;-73
2023/10/26 14:41:18;;;;;;;6.22;5.40;;;;;;;;;;5049243;28;20417;-73
2023/10/26 14:43:46;;;;;;;14.48;10.38;;;;;;;;;;5072484;28;20439;-74
2023/10/26 14:46:14;;;;;;;12.13;8.82;;;;;;;;;;5036372;28;20472;-74
2023/10/26 14:48:41;;;;;;;10.23;8.07;;;;;;;;;;5044022;28;21420;-74
2023/10/26 14:51:08;;;;;;;9.23;7.00;;;;;;;;;;5044153;28;20437;-73
2023/10/26 14:53:35;;;;;;;6.82;6.10;;;;;;;;;;5046453;28;20808;-73